Time;durP1;ratioP1;P1;durP2;ratioP2;P2;SDS_P1;SDS_P2;PMS_P1;PMS_P2;Temp;Humidity;BMP_temperature;BMP_pressure;BME280_temperature;BME280_humidity;BME280_pressure;Samples;Min_cycle;Max_cycle;Signal;HPM_P1;HPM_P2
2021/01/27 00:01:00;;;;;;;6.90;3.65;;;;;;;-145.48;100.00;59605.97;6240664;23;20031;-77
2021/01/27 00:03:25;;;;;;;5.03;3.13;;;;;;;-145.48;100.00;59605.97;6240296;23;20066;-78
2021/01/27 00:05:52;;;;;;;10.45;3.97;;;;;;;-145.48;100.00;59605.97;6240726;23;20123;-77
2021/01/27 00:08:18;;;;;;;10.93;3.70;;;;;;;-145.48;100.00;59605.97;6239984;23;20028;-78
2021/01/27 00:14:43;;;;;;;17.17;3.63;;;;;;;-145.48;100.00;59605.97;6242251;23;20143;-77
2021/01/27 00:17:08;;;;;;;9.00;4.43;;;;;;;-145.48;100.00;59605.97;6213467;23;20051;-77
2021/01/27 00:19:33;;;;;;;8.90;4.75;;;;;;;-145.48;100.00;59605.97;6212754;23;20004;-77
2021/01/27 00:21:58;;;;;;;7.82;4.43;;;;;;;-145.48;100.00;59605.97;6240777;23;20387;-77
2021/01/27 00:24:24;;;;;;;9.18;4.15;;;;;;;-145.48;100.00;59605.97;6241769;23;20062;-78
2021/01/27 00:26:49;;;;;;;8.27;5.00;;;;;;;-145.48;100.00;59605.97;6243295;23;20361;-78
2021/01/27 00:29:14;;;;;;;9.52;4.70;;;;;;;-145.48;100.00;59605.97;6239168;23;20004;-78
2021/01/27 00:31:40;;;;;;;10.32;4.85;;;;;;;-145.48;100.00;59605.97;6241493;23;20346;-78
2021/01/27 00:34:05;;;;;;;8.25;4.78;;;;;;;-145.48;100.00;59605.97;6243359;23;20031;-77
2021/01/27 00:36:30;;;;;;;9.73;4.45;;;;;;;-145.48;100.00;59605.97;6240009;23;20007;-78
2021/01/27 00:38:55;;;;;;;7.32;4.93;;;;;;;-145.48;100.00;59605.97;6239138;23;20004;-78
2021/01/27 00:41:21;;;;;;;13.25;5.85;;;;;;;-145.48;100.00;59605.97;6239846;23;20011;-77
2021/01/27 00:43:46;;;;;;;10.90;6.25;;;;;;;-145.48;100.00;59605.97;6239899;23;20284;-78
2021/01/27 00:46:11;;;;;;;10.20;4.78;;;;;;;-145.48;100.00;59605.97;6240176;23;20004;-77
2021/01/27 00:48:36;;;;;;;11.98;6.03;;;;;;;-145.48;100.00;59605.97;6239365;23;20602;-77
2021/01/27 00:51:02;;;;;;;9.88;5.35;;;;;;;-145.48;100.00;59605.97;6242183;23;20008;-77
2021/01/27 00:53:27;;;;;;;7.50;5.43;;;;;;;-145.48;100.00;59605.97;6241815;23;20084;-77
2021/01/27 00:55:52;;;;;;;11.38;6.03;;;;;;;-145.48;100.00;59605.97;6242050;23;20000;-78
2021/01/27 00:58:18;;;;;;;11.80;6.55;;;;;;;-145.48;100.00;59605.97;6239479;23;20038;-77
2021/01/27 01:00:43;;;;;;;12.95;6.78;;;;;;;-145.48;100.00;59605.97;6236431;23;20004;-78
2021/01/27 01:03:10;;;;;;;14.70;6.43;;;;;;;-145.48;100.00;59605.97;6238961;23;20329;-78
2021/01/27 01:05:42;;;;;;;12.15;6.60;;;;;;;-145.48;100.00;59605.97;6238992;22;20094;-77
2021/01/27 01:08:12;;;;;;;9.52;5.32;;;;;;;-145.48;100.00;59605.97;6240610;23;20023;-78
2021/01/27 01:10:40;;;;;;;11.88;7.18;;;;;;;-145.48;100.00;59605.97;6241076;23;20004;-78
2021/01/27 01:13:11;;;;;;;8.63;5.07;;;;;;;-145.48;100.00;59605.97;6243028;23;20026;-78
2021/01/27 01:15:36;;;;;;;13.93;6.38;;;;;;;-145.48;100.00;59605.97;6243858;23;20031;-78
2021/01/27 01:18:02;;;;;;;10.73;6.22;;;;;;;-145.48;100.00;59605.97;6238549;23;20023;-77
2021/01/27 01:20:28;;;;;;;12.15;6.70;;;;;;;-145.48;100.00;59605.97;6238157;23;20147;-77
2021/01/27 01:22:59;;;;;;;16.27;7.57;;;;;;;-145.48;100.00;59605.97;6239166;23;20001;-77
2021/01/27 01:25:27;;;;;;;12.27;7.03;;;;;;;-145.48;100.00;59605.97;6239400;23;20310;-77
2021/01/27 01:27:53;;;;;;;13.18;6.88;;;;;;;-145.48;100.00;59605.97;6239463;23;20016;-77
2021/01/27 01:30:26;;;;;;;12.27;8.02;;;;;;;-145.48;100.00;59605.97;6208447;23;20031;-77
2021/01/27 01:32:57;;;;;;;12.68;8.30;;;;;;;-145.48;100.00;59605.97;6239533;23;20046;-77
2021/01/27 01:35:23;;;;;;;9.85;5.45;;;;;;;-145.48;100.00;59605.97;6239797;23;20031;-77
2021/01/27 01:37:50;;;;;;;12.68;7.97;;;;;;;-145.48;100.00;59605.97;6239571;23;20012;-77
2021/01/27 01:40:23;;;;;;;15.48;7.78;;;;;;;-145.48;100.00;59605.97;6239923;23;20118;-77
2021/01/27 01:43:07;;;;;;;13.48;6.75;;;;;;;-145.48;100.00;59605.97;6240048;23;20027;-77
2021/01/27 01:45:47;;;;;;;8.13;5.60;;;;;;;-145.48;100.00;59605.97;6240607;23;20512;-76
2021/01/27 01:48:24;;;;;;;13.30;7.53;;;;;;;-145.48;100.00;59605.97;6239325;23;20728;-77
2021/01/27 01:50:54;;;;;;;11.07;6.95;;;;;;;-145.48;100.00;59605.97;6240154;23;20000;-77
2021/01/27 01:53:21;;;;;;;10.15;5.85;;;;;;;-145.48;100.00;59605.97;6240204;23;20011;-77
2021/01/27 01:55:49;;;;;;;12.40;7.45;;;;;;;-145.48;100.00;59605.97;6239925;23;20426;-77
2021/01/27 01:58:15;;;;;;;9.90;7.00;;;;;;;-145.48;100.00;59605.97;6239249;23;20012;-77
2021/01/27 02:00:41;;;;;;;11.88;6.72;;;;;;;-145.48;100.00;59605.97;6239788;23;20012;-77
2021/01/27 02:03:12;;;;;;;11.35;6.47;;;;;;;-145.48;100.00;59605.97;6240315;23;20001;-77
2021/01/27 02:05:39;;;;;;;11.18;6.95;;;;;;;-145.48;100.00;59605.97;6240488;22;20099;-78
2021/01/27 02:08:05;;;;;;;11.05;6.97;;;;;;;-145.48;100.00;59605.97;6240012;23;20004;-78
2021/01/27 02:10:30;;;;;;;7.63;4.75;;;;;;;-145.48;100.00;59605.97;6241445;23;20011;-78
2021/01/27 02:13:37;;;;;;;13.13;7.65;;;;;;;-145.48;100.00;59605.97;6240372;23;20393;-78
2021/01/27 02:16:33;;;;;;;10.32;6.28;;;;;;;-145.48;100.00;59605.97;6239577;23;20015;-77
2021/01/27 02:19:34;;;;;;;11.45;7.72;;;;;;;-145.48;100.00;59605.97;6212206;23;20429;-77
2021/01/27 02:22:37;;;;;;;13.32;6.47;;;;;;;-145.48;100.00;59605.97;6239228;23;20007;-77
2021/01/27 02:25:40;;;;;;;9.82;6.47;;;;;;;-145.48;100.00;59605.97;6240339;23;20023;-78
2021/01/27 02:28:10;;;;;;;9.68;6.07;;;;;;;-145.48;100.00;59605.97;6240107;23;20098;-78
2021/01/27 02:31:05;;;;;;;11.02;6.15;;;;;;;-145.48;100.00;59605.97;6207377;23;20712;-77
2021/01/27 02:33:54;;;;;;;13.57;5.53;;;;;;;-145.48;100.00;59605.97;6238680;23;20083;-77
2021/01/27 02:37:04;;;;;;;8.35;5.63;;;;;;;-145.48;100.00;59605.97;6239511;23;20004;-77
2021/01/27 02:39:34;;;;;;;12.10;6.32;;;;;;;-145.48;100.00;59605.97;6230877;23;20000;-77
2021/01/27 02:42:03;;;;;;;9.60;5.50;;;;;;;-145.48;100.00;59605.97;6239457;23;20008;-77
2021/01/27 02:44:37;;;;;;;9.05;5.70;;;;;;;-145.48;100.00;59605.97;6239143;23;20040;-77
2021/01/27 02:47:12;;;;;;;7.13;5.57;;;;;;;-145.48;100.00;59605.97;6239901;23;20027;-77
2021/01/27 02:50:00;;;;;;;8.77;5.38;;;;;;;-145.48;100.00;59605.97;6238810;23;20404;-77
2021/01/27 02:52:34;;;;;;;7.38;5.25;;;;;;;-145.48;100.00;59605.97;6238830;23;20093;-77
2021/01/27 02:55:11;;;;;;;10.52;5.43;;;;;;;-145.48;100.00;59605.97;6239610;23;20078;-77
2021/01/27 02:57:54;;;;;;;10.80;5.70;;;;;;;-145.48;100.00;59605.97;6239295;23;20466;-77
2021/01/27 03:00:26;;;;;;;8.95;5.47;;;;;;;-145.48;100.00;59605.97;6239949;23;20004;-77
2021/01/27 03:03:27;;;;;;;7.05;5.43;;;;;;;-145.48;100.00;59605.97;6212711;23;20322;-77
2021/01/27 03:05:57;;;;;;;7.28;4.60;;;;;;;-145.48;100.00;59605.97;6239403;23;20027;-77
2021/01/27 03:08:33;;;;;;;6.78;5.13;;;;;;;-145.48;100.00;59605.97;6211842;23;20004;-77
2021/01/27 03:11:07;;;;;;;7.22;4.43;;;;;;;-145.48;100.00;59605.97;6212062;23;20015;-78
2021/01/27 03:13:35;;;;;;;5.95;5.30;;;;;;;-145.48;100.00;59605.97;6212143;23;20346;-78
2021/01/27 03:16:06;;;;;;;9.63;5.35;;;;;;;-145.48;100.00;59605.97;6241244;23;20063;-77
2021/01/27 03:18:35;;;;;;;6.07;4.97;;;;;;;-145.48;100.00;59605.97;6238962;23;20003;-77
2021/01/27 03:21:06;;;;;;;7.18;5.53;;;;;;;-145.48;100.00;59605.97;6239745;23;20031;-78
2021/01/27 03:23:41;;;;;;;10.85;5.55;;;;;;;-145.48;100.00;59605.97;6239710;23;20592;-78
2021/01/27 03:26:24;;;;;;;8.38;4.90;;;;;;;-145.48;100.00;59605.97;6213190;23;20004;-78
2021/01/27 03:28:56;;;;;;;7.30;5.10;;;;;;;-145.48;100.00;59605.97;6238686;23;20490;-78
2021/01/27 03:31:22;;;;;;;9.20;5.75;;;;;;;-145.48;100.00;59605.97;6235588;23;20014;-78
2021/01/27 03:33:54;;;;;;;7.75;4.70;;;;;;;-145.48;100.00;59605.97;6238864;23;20568;-78
2021/01/27 03:36:20;;;;;;;8.55;5.70;;;;;;;-145.48;100.00;59605.97;6238802;23;20444;-78
2021/01/27 03:38:49;;;;;;;7.30;5.68;;;;;;;-145.48;100.00;59605.97;6239146;23;20004;-77
2021/01/27 03:41:59;;;;;;;6.57;5.28;;;;;;;-145.48;100.00;59605.97;6240002;23;20008;-78
2021/01/27 03:44:35;;;;;;;7.22;4.80;;;;;;;-145.48;100.00;59605.97;6232907;23;20019;-78
2021/01/27 03:47:27;;;;;;;6.53;5.22;;;;;;;-145.48;100.00;59605.97;6240495;23;20022;-77
2021/01/27 03:50:00;;;;;;;6.65;5.50;;;;;;;-145.48;100.00;59605.97;6239078;23;20059;-78
2021/01/27 03:52:55;;;;;;;9.48;5.55;;;;;;;-145.48;100.00;59605.97;6239438;23;20014;-77
2021/01/27 03:55:30;;;;;;;8.10;6.32;;;;;;;-145.48;100.00;59605.97;6239465;23;20035;-78
2021/01/27 03:58:06;;;;;;;9.10;6.97;;;;;;;-145.48;100.00;59605.97;6237714;23;20008;-78
2021/01/27 04:00:32;;;;;;;10.38;6.53;;;;;;;-145.48;100.00;59605.97;6239449;23;20008;-78
2021/01/27 04:03:14;;;;;;;9.02;5.32;;;;;;;-145.48;100.00;59605.97;6238960;23;20015;-78
2021/01/27 04:05:40;;;;;;;10.23;7.10;;;;;;;-145.48;100.00;59605.97;6238605;22;20430;-78
2021/01/27 04:08:08;;;;;;;9.50;5.72;;;;;;;-145.48;100.00;59605.97;6238237;23;20011;-77
2021/01/27 04:10:34;;;;;;;7.72;6.20;;;;;;;-145.48;100.00;59605.97;6237561;23;20014;-78
2021/01/27 04:13:00;;;;;;;11.32;8.13;;;;;;;-145.48;100.00;59605.97;6211708;23;20004;-77
2021/01/27 04:15:25;;;;;;;9.65;7.47;;;;;;;-145.48;100.00;59605.97;6238847;23;20801;-77
2021/01/27 04:17:51;;;;;;;10.57;7.57;;;;;;;-145.48;100.00;59605.97;6238018;23;20008;-77
2021/01/27 04:20:17;;;;;;;9.05;8.00;;;;;;;-145.48;100.00;59605.97;6239326;23;20008;-77
2021/01/27 04:22:42;;;;;;;8.43;6.60;;;;;;;-145.48;100.00;59605.97;6238618;23;20008;-77
2021/01/27 04:25:08;;;;;;;11.27;8.25;;;;;;;-145.48;100.00;59605.97;6238898;23;20057;-77
2021/01/27 04:27:33;;;;;;;10.18;9.02;;;;;;;-145.48;100.00;59605.97;6237705;23;20280;-77
2021/01/27 04:29:59;;;;;;;11.95;9.68;;;;;;;-145.48;100.00;59605.97;6233388;23;20107;-76
2021/01/27 04:32:24;;;;;;;13.43;8.38;;;;;;;-145.48;100.00;59605.97;6209143;23;20031;-76
2021/01/27 04:34:49;;;;;;;14.80;9.25;;;;;;;-145.48;100.00;59605.97;6237697;23;20019;-77
2021/01/27 04:37:15;;;;;;;13.00;10.05;;;;;;;-145.48;100.00;59605.97;6238648;23;20066;-78
2021/01/27 04:39:40;;;;;;;10.23;7.35;;;;;;;-145.48;100.00;59605.97;6240371;23;20008;-78
2021/01/27 04:42:09;;;;;;;12.00;10.27;;;;;;;-145.48;100.00;59605.97;6215038;23;20492;-78
2021/01/27 04:44:34;;;;;;;10.07;8.98;;;;;;;-145.48;100.00;59605.97;6242475;23;20802;-79
2021/01/27 04:47:34;;;;;;;13.43;10.32;;;;;;;-145.48;100.00;59605.97;6241758;23;20011;-78
2021/01/27 04:50:21;;;;;;;12.75;10.05;;;;;;;-145.48;100.00;59605.97;6213663;23;20008;-77
2021/01/27 04:53:00;;;;;;;11.70;8.90;;;;;;;-145.48;100.00;59605.97;6240834;23;20328;-77
2021/01/27 04:55:37;;;;;;;10.63;8.63;;;;;;;-145.48;100.00;59605.97;6239880;23;20169;-77
2021/01/27 04:58:26;;;;;;;12.23;9.95;;;;;;;-145.48;100.00;59605.97;6240057;23;20004;-77
2021/01/27 05:01:20;;;;;;;11.95;9.77;;;;;;;-145.48;100.00;59605.97;6240796;23;20011;-77
2021/01/27 05:03:56;;;;;;;10.30;9.00;;;;;;;-145.48;100.00;59605.97;6239890;22;20007;-77
2021/01/27 05:06:27;;;;;;;;;;;;;;;-145.48;100.00;59605.97;6240394;23;20008;-77
2021/01/27 05:09:08;;;;;;;10.27;8.20;;;;;;;-145.48;100.00;59605.97;6239831;23;19961;-77
2021/01/27 05:11:34;;;;;;;10.32;9.23;;;;;;;-145.48;100.00;59605.97;6240889;23;20346;-77
2021/01/27 05:14:03;;;;;;;12.45;9.10;;;;;;;-145.48;100.00;59605.97;6241729;23;20000;-78
2021/01/27 05:16:31;;;;;;;12.43;8.35;;;;;;;-145.48;100.00;59605.97;6241377;23;20019;-78
2021/01/27 05:19:04;;;;;;;10.70;8.52;;;;;;;-145.48;100.00;59605.97;6239843;23;20079;-77
2021/01/27 05:21:33;;;;;;;10.63;8.18;;;;;;;-145.48;100.00;59605.97;6240051;23;20079;-77
2021/01/27 05:23:59;;;;;;;9.23;7.93;;;;;;;-145.48;100.00;59605.97;6213037;23;20008;-77
2021/01/27 05:26:35;;;;;;;10.15;8.15;;;;;;;-145.48;100.00;59605.97;6238966;23;20027;-77
2021/01/27 05:29:03;;;;;;;;;;;;;;;-145.48;100.00;59605.97;6236155;23;20083;-77
2021/01/27 05:31:57;;;;;;;9.82;8.63;;;;;;;-145.48;100.00;59605.97;6209512;23;20282;-77
2021/01/27 05:34:27;;;;;;;9.55;8.38;;;;;;;-145.48;100.00;59605.97;6238422;23;20043;-77
2021/01/27 05:36:53;;;;;;;8.88;7.97;;;;;;;-145.48;100.00;59605.97;6213583;23;20035;-77
2021/01/27 05:39:27;;;;;;;13.10;9.90;;;;;;;-145.48;100.00;59605.97;6238846;23;20000;-78
2021/01/27 05:42:04;;;;;;;15.65;8.93;;;;;;;-145.48;100.00;59605.97;6240016;23;20111;-77
2021/01/27 05:44:29;;;;;;;9.10;7.75;;;;;;;-145.48;100.00;59605.97;6240164;23;20437;-78
2021/01/27 05:46:55;;;;;;;9.57;7.65;;;;;;;-145.48;100.00;59605.97;6239817;23;20075;-77
2021/01/27 05:49:29;;;;;;;9.57;8.43;;;;;;;-145.48;100.00;59605.97;6241858;23;20603;-78
2021/01/27 05:52:13;;;;;;;10.48;8.63;;;;;;;-145.48;100.00;59605.97;6239573;23;20015;-77
2021/01/27 05:54:38;;;;;;;8.52;6.85;;;;;;;-145.48;100.00;59605.97;6242224;23;20004;-78
2021/01/27 05:57:11;;;;;;;12.50;8.00;;;;;;;-145.48;100.00;59605.97;6243133;23;20011;-77
2021/01/27 05:59:36;;;;;;;11.35;9.07;;;;;;;-145.48;100.00;59605.97;6213962;23;20298;-77
2021/01/27 06:02:04;;;;;;;12.35;9.07;;;;;;;-145.48;100.00;59605.97;6239980;23;20024;-77
2021/01/27 06:04:32;;;;;;;10.45;9.23;;;;;;;-145.48;100.00;59605.97;6237574;22;20019;-77
2021/01/27 06:07:05;;;;;;;10.77;9.27;;;;;;;-145.48;100.00;59605.97;6237944;23;20078;-77
2021/01/27 06:09:43;;;;;;;10.85;8.15;;;;;;;-145.48;100.00;59605.97;6239782;23;20050;-75
2021/01/27 06:12:10;;;;;;;9.45;8.00;;;;;;;-145.48;100.00;59605.97;6236648;23;20019;-75
2021/01/27 06:14:35;;;;;;;8.98;7.93;;;;;;;-145.48;100.00;59605.97;6210245;23;20015;-76
2021/01/27 06:17:34;;;;;;;14.10;8.27;;;;;;;-145.48;100.00;59605.97;6235532;23;20000;-76
2021/01/27 06:20:30;;;;;;;11.02;8.43;;;;;;;-145.48;100.00;59605.97;6210789;23;20004;-76
2021/01/27 06:23:18;;;;;;;10.65;7.35;;;;;;;-145.48;100.00;59605.97;6085103;23;20022;-75
2021/01/27 06:25:52;;;;;;;9.38;7.57;;;;;;;-145.48;100.00;59605.97;6086160;23;20018;-76
2021/01/27 06:28:30;;;;;;;10.27;7.85;;;;;;;-145.48;100.00;59605.97;6085213;23;20010;-76
2021/01/27 06:31:19;;;;;;;8.80;7.55;;;;;;;-145.48;100.00;59605.97;6080508;23;20018;-76
2021/01/27 06:34:05;;;;;;;7.97;5.20;;;;;;;-145.48;100.00;59605.97;6044130;23;20033;-77
2021/01/27 06:36:56;;;;;;;;;;;;;;;-145.48;100.00;59605.97;6086627;23;20034;-76
2021/01/27 06:39:54;;;;;;;6.32;5.55;;;;;;;-145.48;100.00;59605.97;6051895;23;19995;-76
2021/01/27 06:42:50;;;;;;;8.23;6.80;;;;;;;-145.48;100.00;59605.97;6086463;23;20013;-76
2021/01/27 06:45:34;;;;;;;8.45;6.57;;;;;;;-145.48;100.00;59605.97;6086230;23;20010;-76
2021/01/27 06:48:28;;;;;;;10.98;7.03;;;;;;;-145.48;100.00;59605.97;6073574;23;20558;-77
2021/01/27 06:51:00;;;;;;;7.95;6.35;;;;;;;-145.48;100.00;59605.97;6051683;23;20274;-76
2021/01/27 06:53:53;;;;;;;7.65;5.57;;;;;;;-145.48;100.00;59605.97;6081986;23;20807;-76
2021/01/27 06:56:24;;;;;;;7.07;5.75;;;;;;;-145.48;100.00;59605.97;6057563;23;20010;-76
2021/01/27 06:59:14;;;;;;;7.50;6.45;;;;;;;-145.48;100.00;59605.97;6125796;23;20007;-76
2021/01/27 07:01:55;;;;;;;7.03;6.30;;;;;;;-145.48;100.00;59605.97;6235673;23;20015;-76
2021/01/27 07:04:42;;;;;;;8.80;7.32;;;;;;;-145.48;100.00;59605.97;6234981;23;20008;-76
2021/01/27 07:07:15;;;;;;;11.55;7.72;;;;;;;-145.48;100.00;59605.97;6237634;23;20022;-76
2021/01/27 07:09:47;;;;;;;8.82;7.13;;;;;;;-145.48;100.00;59605.97;6238144;23;20062;-75
2021/01/27 07:12:25;;;;;;;9.43;7.70;;;;;;;-145.48;100.00;59605.97;6239036;23;20347;-75
2021/01/27 07:15:00;;;;;;;8.88;7.38;;;;;;;-145.48;100.00;59605.97;6212100;23;20545;-77
2021/01/27 07:17:32;;;;;;;10.35;7.88;;;;;;;-145.48;100.00;59605.97;6236730;23;20004;-78
2021/01/27 07:20:15;;;;;;;12.27;8.73;;;;;;;-145.48;100.00;59605.97;6238557;23;20038;-78
2021/01/27 07:23:34;;;;;;;11.70;8.73;;;;;;;-145.48;100.00;59605.97;6238284;23;20597;-77
2021/01/27 07:26:02;;;;;;;12.20;8.32;;;;;;;-145.48;100.00;59605.97;6075875;23;20598;-78
2021/01/27 07:28:55;;;;;;;12.35;9.95;;;;;;;-145.48;100.00;59605.97;6084522;23;20060;-78
2021/01/27 07:31:28;;;;;;;13.85;9.55;;;;;;;-145.48;100.00;59605.97;6060124;23;20007;-77
2021/01/27 07:33:58;;;;;;;13.80;9.68;;;;;;;-145.48;100.00;59605.97;6083943;23;20006;-76
2021/01/27 07:36:43;;;;;;;12.95;10.60;;;;;;;-145.48;100.00;59605.97;6084803;23;20026;-78
2021/01/27 07:39:36;;;;;;;13.18;10.80;;;;;;;-145.48;100.00;59605.97;6042134;23;20006;-77
2021/01/27 07:42:22;;;;;;;20.20;10.90;;;;;;;-145.48;100.00;59605.97;6083839;23;20045;-77
2021/01/27 07:44:54;;;;;;;14.90;11.10;;;;;;;-145.48;100.00;59605.97;6084399;23;20430;-77
2021/01/27 07:47:46;;;;;;;14.98;11.70;;;;;;;-145.48;100.00;59605.97;6082723;23;20033;-77
2021/01/27 07:50:16;;;;;;;19.50;13.07;;;;;;;-145.48;100.00;59605.97;6058828;23;20087;-77
2021/01/27 07:52:50;;;;;;;15.20;12.40;;;;;;;-145.48;100.00;59605.97;6084689;23;20057;-77
2021/01/27 07:55:24;;;;;;;16.83;13.20;;;;;;;-145.48;100.00;59605.97;6085006;23;20433;-77
2021/01/27 07:58:01;;;;;;;17.90;12.68;;;;;;;-145.48;100.00;59605.97;6084199;23;20354;-77
2021/01/27 08:00:37;;;;;;;22.05;15.63;;;;;;;-145.48;100.00;59605.97;6186728;23;20038;-77
2021/01/27 08:03:27;;;;;;;25.97;16.37;;;;;;;-145.48;100.00;59605.97;6237037;23;20112;-77
2021/01/27 08:06:19;;;;;;;23.35;16.50;;;;;;;-145.48;100.00;59605.97;6235162;22;20296;-77
2021/01/27 08:08:57;;;;;;;22.38;16.98;;;;;;;-145.48;100.00;59605.97;6235944;23;20004;-77
2021/01/27 08:11:35;;;;;;;27.05;17.10;;;;;;;-145.48;100.00;59605.97;6236132;23;20034;-78
2021/01/27 08:14:02;;;;;;;28.20;18.67;;;;;;;-145.48;100.00;59605.97;6199013;23;20020;-78
2021/01/27 08:16:32;;;;;;;32.08;18.35;;;;;;;-145.48;100.00;59605.97;6237384;23;20387;-79
2021/01/27 08:19:12;;;;;;;27.52;18.77;;;;;;;-145.48;100.00;59605.97;6212826;23;20076;-80
2021/01/27 08:21:59;;;;;;;25.63;17.98;;;;;;;-145.48;100.00;59605.97;6240110;23;20063;-78
2021/01/27 08:24:36;;;;;;;22.20;16.25;;;;;;;-145.48;100.00;59605.97;6214069;23;20001;-80
2021/01/27 08:27:10;;;;;;;28.52;18.70;;;;;;;-145.48;100.00;59605.97;6240324;23;20689;-79
2021/01/27 08:29:39;;;;;;;22.23;16.42;;;;;;;-145.48;100.00;59605.97;6236129;23;20004;-79
2021/01/27 08:32:25;;;;;;;26.50;18.48;;;;;;;-145.48;100.00;59605.97;6239189;23;20641;-79
2021/01/27 08:34:53;;;;;;;30.02;19.38;;;;;;;-145.48;100.00;59605.97;6239337;23;20065;-79
2021/01/27 08:37:22;;;;;;;28.05;19.15;;;;;;;-145.48;100.00;59605.97;6239956;23;20030;-79
2021/01/27 08:39:47;;;;;;;28.98;18.70;;;;;;;-145.48;100.00;59605.97;6239828;23;20036;-79
2021/01/27 08:42:25;;;;;;;31.48;19.52;;;;;;;-145.48;100.00;59605.97;6240834;23;20015;-80
2021/01/27 08:44:51;;;;;;;25.95;16.02;;;;;;;-145.48;100.00;59605.97;6240136;23;20358;-78
2021/01/27 08:47:16;;;;;;;27.83;18.40;;;;;;;-145.48;100.00;59605.97;6239373;23;20000;-80
2021/01/27 08:49:54;;;;;;;26.83;18.77;;;;;;;-145.48;100.00;59605.97;6240189;23;20027;-79
2021/01/27 08:52:20;;;;;;;31.00;20.77;;;;;;;-145.48;100.00;59605.97;6240683;23;20328;-78
2021/01/27 08:54:51;;;;;;;34.47;20.93;;;;;;;-145.48;100.00;59605.97;6240395;23;20187;-78
2021/01/27 08:57:26;;;;;;;29.05;17.58;;;;;;;-145.48;100.00;59605.97;6239924;23;20217;-77
2021/01/27 08:59:58;;;;;;;33.00;16.85;;;;;;;-145.48;100.00;59605.97;6233057;23;20000;-78
2021/01/27 09:02:43;;;;;;;30.38;18.17;;;;;;;-145.48;100.00;59605.97;6210897;23;20012;-77
2021/01/27 09:38:38;;;;;;;25.38;16.30;;;;;;;-145.48;100.00;59605.97;6238872;22;20125;-79
2021/01/27 09:45:58;;;;;;;29.00;18.60;;;;;;;-145.48;100.00;59605.97;6239236;22;20055;-80
2021/01/27 09:48:23;;;;;;;28.75;19.42;;;;;;;-145.48;100.00;59605.97;6212543;23;20020;-80
2021/01/27 09:51:00;;;;;;;30.67;19.08;;;;;;;-145.48;100.00;59605.97;6212942;23;20012;-79
2021/01/27 09:53:39;;;;;;;33.78;21.45;;;;;;;-145.48;100.00;59605.97;6213382;23;20044;-80
2021/01/27 09:56:07;;;;;;;30.55;20.02;;;;;;;-145.48;100.00;59605.97;6214908;23;20029;-81
2021/01/27 09:58:37;;;;;;;34.08;20.05;;;;;;;-145.48;100.00;59605.97;6216589;23;20001;-80
2021/01/27 10:01:27;;;;;;;34.88;22.48;;;;;;;-145.48;100.00;59605.97;6189502;23;20016;-80
2021/01/27 10:04:43;;;;;;;35.35;22.45;;;;;;;-145.48;100.00;59605.97;6163735;23;20247;-81
2021/01/27 10:07:40;;;;;;;35.20;21.08;;;;;;;-145.48;100.00;59605.97;6094053;23;20040;-82
2021/01/27 10:10:08;;;;;;;30.67;19.10;;;;;;;-145.48;100.00;59605.97;6093425;23;20093;-80
2021/01/27 10:12:34;;;;;;;37.30;22.67;;;;;;;-145.48;100.00;59605.97;6093729;23;20124;-81
2021/01/27 10:15:09;;;;;;;41.03;22.73;;;;;;;-145.48;100.00;59605.97;6094778;23;20089;-81
2021/01/27 10:17:34;;;;;;;33.45;19.67;;;;;;;-145.48;100.00;59605.97;6092423;23;20007;-81
2021/01/27 10:20:05;;;;;;;32.60;21.00;;;;;;;-145.48;100.00;59605.97;6060676;23;20010;-81
2021/01/27 10:22:35;;;;;;;35.83;20.85;;;;;;;-145.48;100.00;59605.97;6070335;23;20014;-81
2021/01/27 10:25:03;;;;;;;38.30;21.08;;;;;;;-145.48;100.00;59605.97;6070847;23;20013;-82
2021/01/27 10:27:32;;;;;;;36.60;20.10;;;;;;;-145.48;100.00;59605.97;6095233;23;20010;-82
2021/01/27 10:29:59;;;;;;;35.75;20.25;;;;;;;-145.48;100.00;59605.97;6090715;23;20101;-82
2021/01/27 10:32:27;;;;;;;40.85;22.38;;;;;;;-145.48;100.00;59605.97;6092953;23;20010;-82
2021/01/27 10:34:53;;;;;;;38.05;21.63;;;;;;;-145.48;100.00;59605.97;6087634;23;20013;-83
2021/01/27 10:37:31;;;;;;;32.03;20.83;;;;;;;-145.48;100.00;59605.97;6126276;23;20046;-82
2021/01/27 10:40:14;;;;;;;33.83;21.15;;;;;;;-145.48;100.00;59605.97;6214377;23;20028;-82
2021/01/27 10:42:49;;;;;;;32.90;20.65;;;;;;;-145.48;100.00;59605.97;6189655;23;20013;-82
2021/01/27 10:45:34;;;;;;;35.65;21.20;;;;;;;-145.48;100.00;59605.97;6190064;23;20001;-82
2021/01/27 10:48:13;;;;;;;38.65;21.70;;;;;;;-145.48;100.00;59605.97;6244411;22;20043;-82
2021/01/27 10:50:50;;;;;;;39.28;20.10;;;;;;;-145.48;100.00;59605.97;6247649;23;20330;-82
2021/01/27 10:53:17;;;;;;;40.08;23.40;;;;;;;-145.48;100.00;59605.97;6248129;23;20000;-82
2021/01/27 10:55:52;;;;;;;38.92;23.50;;;;;;;-145.48;100.00;59605.97;6247147;23;20000;-82
2021/01/27 10:58:18;;;;;;;36.10;22.40;;;;;;;-145.48;100.00;59605.97;6245688;23;20000;-80
2021/01/27 11:00:44;;;;;;;37.05;23.58;;;;;;;-145.48;100.00;59605.97;6211301;23;20970;-80
2021/01/27 11:03:17;;;;;;;42.38;22.02;;;;;;;-145.48;100.00;59605.97;6238526;23;20441;-81
2021/01/27 11:05:43;;;;;;;36.03;21.35;;;;;;;-145.48;100.00;59605.97;6212624;23;20355;-81
2021/01/27 11:08:17;;;;;;;36.53;21.80;;;;;;;-145.48;100.00;59605.97;6244377;23;20007;-82
2021/01/27 11:10:43;;;;;;;35.60;22.02;;;;;;;-145.48;100.00;59605.97;6240156;23;20019;-81
2021/01/27 11:13:08;;;;;;;38.55;21.65;;;;;;;-145.48;100.00;59605.97;6238141;23;20008;-81
2021/01/27 11:15:33;;;;;;;36.35;21.38;;;;;;;-145.48;100.00;59605.97;6215157;23;20618;-81
2021/01/27 11:17:58;;;;;;;34.50;21.92;;;;;;;-145.48;100.00;59605.97;6243767;23;20434;-81
2021/01/27 11:20:25;;;;;;;34.40;21.73;;;;;;;-145.48;100.00;59605.97;6224923;23;20012;-82
2021/01/27 11:22:52;;;;;;;35.05;21.85;;;;;;;-145.48;100.00;59605.97;6248404;23;20011;-81
2021/01/27 11:25:19;;;;;;;31.27;21.50;;;;;;;-145.48;100.00;59605.97;6216161;23;20000;-82
2021/01/27 11:27:45;;;;;;;38.38;22.00;;;;;;;-145.48;100.00;59605.97;6216592;23;20338;-81
2021/01/27 11:30:12;;;;;;;39.47;22.65;;;;;;;-145.48;100.00;59605.97;6239904;23;20088;-81
2021/01/27 11:32:38;;;;;;;38.20;22.17;;;;;;;-145.48;100.00;59605.97;6239525;23;20122;-83
2021/01/27 11:35:04;;;;;;;39.58;21.42;;;;;;;-145.48;100.00;59605.97;6215742;23;20004;-82
2021/01/27 11:37:30;;;;;;;40.58;22.83;;;;;;;-145.48;100.00;59605.97;6213151;23;20008;-81
2021/01/27 11:39:56;;;;;;;40.33;20.83;;;;;;;-145.48;100.00;59605.97;6240617;23;20015;-80
2021/01/27 11:42:21;;;;;;;32.13;21.00;;;;;;;-145.48;100.00;59605.97;6243227;23;20707;-82
2021/01/27 11:44:47;;;;;;;37.97;21.20;;;;;;;-145.48;100.00;59605.97;6204221;23;20130;-81
2021/01/27 11:47:12;;;;;;;42.38;21.52;;;;;;;-145.48;100.00;59605.97;6242218;22;20020;-80
2021/01/27 11:49:39;;;;;;;28.77;19.77;;;;;;;-145.48;100.00;59605.97;6241548;23;20004;-81
2021/01/27 11:53:12;;;;;;;38.40;21.45;;;;;;;-145.48;100.00;59605.97;6245073;23;20004;-83
2021/01/27 11:55:55;;;;;;;33.63;19.77;;;;;;;-145.48;100.00;59605.97;6013246;23;20083;-83
2021/01/27 11:58:21;;;;;;;37.55;19.63;;;;;;;-145.48;100.00;59605.97;6034175;23;20039;-81
2021/01/27 12:00:46;;;;;;;33.03;20.20;;;;;;;-145.48;100.00;59605.97;6034612;23;20466;-82
2021/01/27 12:03:12;;;;;;;35.72;22.20;;;;;;;-145.48;100.00;59605.97;6036178;23;20083;-83
2021/01/27 12:05:39;;;;;;;32.30;20.05;;;;;;;-145.48;100.00;59605.97;6037077;23;20026;-81
2021/01/27 12:08:05;;;;;;;34.55;20.83;;;;;;;-145.48;100.00;59605.97;6035485;23;20364;-82
2021/01/27 12:10:30;;;;;;;37.60;19.92;;;;;;;-145.48;100.00;59605.97;6034162;23;20053;-81
2021/01/27 12:12:56;;;;;;;33.97;20.85;;;;;;;-145.48;100.00;59605.97;6011267;23;20089;-82
2021/01/27 12:15:25;;;;;;;38.58;20.48;;;;;;;-145.48;100.00;59605.97;6035683;23;20011;-82